sensor_id;sensor_type;location;lat;lon;timestamp;P1;durP1;ratioP1;P2;durP2;ratioP2
3563;SDS011;1796;52.388;13.096;2022-09-30T00:00:35;14.43;;;9.93;;
3563;SDS011;1796;52.388;13.096;2022-09-30T00:03:01;9.87;;;8.47;;
3563;SDS011;1796;52.388;13.096;2022-09-30T00:05:28;13.87;;;9.10;;
3563;SDS011;1796;52.388;13.096;2022-09-30T00:07:55;13.77;;;8.70;;
3563;SDS011;1796;52.388;13.096;2022-09-30T00:10:23;9.07;;;7.70;;
3563;SDS011;1796;52.388;13.096;2022-09-30T00:12:50;18.10;;;8.60;;
3563;SDS011;1796;52.388;13.096;2022-09-30T00:15:17;10.77;;;8.17;;
3563;SDS011;1796;52.388;13.096;2022-09-30T00:17:45;8.47;;;7.10;;
3563;SDS011;1796;52.388;13.096;2022-09-30T00:20:12;10.10;;;8.17;;
3563;SDS011;1796;52.388;13.096;2022-09-30T00:22:39;10.80;;;7.60;;
3563;SDS011;1796;52.388;13.096;2022-09-30T00:25:06;10.93;;;7.80;;
3563;SDS011;1796;52.388;13.096;2022-09-30T00:27:34;9.17;;;7.80;;
3563;SDS011;1796;52.388;13.096;2022-09-30T00:30:01;11.47;;;9.27;;
3563;SDS011;1796;52.388;13.096;2022-09-30T00:32:28;8.30;;;7.20;;
3563;SDS011;1796;52.388;13.096;2022-09-30T00:34:55;18.10;;;8.70;;
3563;SDS011;1796;52.388;13.096;2022-09-30T00:37:22;9.93;;;7.50;;
3563;SDS011;1796;52.388;13.096;2022-09-30T00:39:49;9.00;;;7.80;;
3563;SDS011;1796;52.388;13.096;2022-09-30T00:42:16;14.03;;;7.37;;
3563;SDS011;1796;52.388;13.096;2022-09-30T00:44:59;14.43;;;7.97;;
3563;SDS011;1796;52.388;13.096;2022-09-30T00:47:37;11.73;;;7.83;;
3563;SDS011;1796;52.388;13.096;2022-09-30T00:53:00;9.00;;;6.80;;
3563;SDS011;1796;52.388;13.096;2022-09-30T00:55:34;9.10;;;6.90;;
3563;SDS011;1796;52.388;13.096;2022-09-30T00:58:10;9.83;;;6.90;;
3563;SDS011;1796;52.388;13.096;2022-09-30T01:00:42;9.03;;;6.90;;
3563;SDS011;1796;52.388;13.096;2022-09-30T01:03:09;8.63;;;6.97;;
3563;SDS011;1796;52.388;13.096;2022-09-30T01:05:35;13.93;;;8.47;;
3563;SDS011;1796;52.388;13.096;2022-09-30T01:08:03;10.20;;;6.20;;
3563;SDS011;1796;52.388;13.096;2022-09-30T01:10:31;11.13;;;7.30;;
3563;SDS011;1796;52.388;13.096;2022-09-30T01:12:58;10.03;;;7.13;;
3563;SDS011;1796;52.388;13.096;2022-09-30T01:15:28;9.67;;;6.90;;
3563;SDS011;1796;52.388;13.096;2022-09-30T01:18:17;9.13;;;7.60;;
3563;SDS011;1796;52.388;13.096;2022-09-30T01:21:09;11.03;;;7.30;;
3563;SDS011;1796;52.388;13.096;2022-09-30T01:24:11;10.00;;;7.30;;
3563;SDS011;1796;52.388;13.096;2022-09-30T01:26:52;14.53;;;7.17;;
3563;SDS011;1796;52.388;13.096;2022-09-30T01:29:46;9.50;;;7.00;;
3563;SDS011;1796;52.388;13.096;2022-09-30T01:32:36;9.90;;;6.87;;
3563;SDS011;1796;52.388;13.096;2022-09-30T01:35:16;9.00;;;7.17;;
3563;SDS011;1796;52.388;13.096;2022-09-30T01:37:53;10.20;;;7.30;;
3563;SDS011;1796;52.388;13.096;2022-09-30T01:40:27;17.30;;;8.70;;
3563;SDS011;1796;52.388;13.096;2022-09-30T01:43:02;12.77;;;8.70;;
3563;SDS011;1796;52.388;13.096;2022-09-30T01:45:34;9.73;;;7.83;;
3563;SDS011;1796;52.388;13.096;2022-09-30T01:48:10;10.50;;;8.33;;
3563;SDS011;1796;52.388;13.096;2022-09-30T01:50:45;12.00;;;9.00;;
3563;SDS011;1796;52.388;13.096;2022-09-30T01:53:18;12.83;;;9.63;;
3563;SDS011;1796;52.388;13.096;2022-09-30T01:55:52;11.63;;;8.60;;
3563;SDS011;1796;52.388;13.096;2022-09-30T01:58:26;19.20;;;10.10;;
3563;SDS011;1796;52.388;13.096;2022-09-30T02:01:02;16.30;;;10.77;;
3563;SDS011;1796;52.388;13.096;2022-09-30T02:03:35;11.60;;;9.60;;
3563;SDS011;1796;52.388;13.096;2022-09-30T02:06:06;10.00;;;8.33;;
3563;SDS011;1796;52.388;13.096;2022-09-30T02:08:38;18.80;;;8.97;;
3563;SDS011;1796;52.388;13.096;2022-09-30T02:11:08;10.57;;;8.50;;
3563;SDS011;1796;52.388;13.096;2022-09-30T02:13:40;13.03;;;8.13;;
3563;SDS011;1796;52.388;13.096;2022-09-30T02:16:14;12.30;;;8.77;;
3563;SDS011;1796;52.388;13.096;2022-09-30T02:18:59;10.57;;;8.00;;
3563;SDS011;1796;52.388;13.096;2022-09-30T02:21:32;9.67;;;7.93;;
3563;SDS011;1796;52.388;13.096;2022-09-30T02:24:03;9.07;;;7.30;;
3563;SDS011;1796;52.388;13.096;2022-09-30T02:26:33;10.40;;;8.47;;
3563;SDS011;1796;52.388;13.096;2022-09-30T02:29:04;10.80;;;8.27;;
3563;SDS011;1796;52.388;13.096;2022-09-30T02:31:36;14.50;;;7.83;;
3563;SDS011;1796;52.388;13.096;2022-09-30T02:34:08;8.87;;;7.50;;
3563;SDS011;1796;52.388;13.096;2022-09-30T02:36:40;7.53;;;6.83;;
3563;SDS011;1796;52.388;13.096;2022-09-30T02:39:13;9.93;;;7.23;;
3563;SDS011;1796;52.388;13.096;2022-09-30T02:41:46;8.70;;;7.23;;
3563;SDS011;1796;52.388;13.096;2022-09-30T02:44:17;11.80;;;7.50;;
3563;SDS011;1796;52.388;13.096;2022-09-30T02:46:46;13.40;;;8.10;;
3563;SDS011;1796;52.388;13.096;2022-09-30T02:49:21;14.90;;;8.70;;
3563;SDS011;1796;52.388;13.096;2022-09-30T02:52:00;11.97;;;8.67;;
3563;SDS011;1796;52.388;13.096;2022-09-30T02:54:38;13.87;;;7.73;;
3563;SDS011;1796;52.388;13.096;2022-09-30T02:57:13;10.40;;;8.43;;
3563;SDS011;1796;52.388;13.096;2022-09-30T02:59:44;9.97;;;8.70;;
3563;SDS011;1796;52.388;13.096;2022-09-30T03:02:12;10.83;;;9.43;;
3563;SDS011;1796;52.388;13.096;2022-09-30T03:04:41;13.27;;;9.53;;
3563;SDS011;1796;52.388;13.096;2022-09-30T03:07:10;13.80;;;9.67;;
3563;SDS011;1796;52.388;13.096;2022-09-30T03:09:37;14.87;;;9.90;;
3563;SDS011;1796;52.388;13.096;2022-09-30T03:12:10;16.17;;;9.90;;
3563;SDS011;1796;52.388;13.096;2022-09-30T03:14:46;14.87;;;9.93;;
3563;SDS011;1796;52.388;13.096;2022-09-30T03:17:28;14.13;;;10.07;;
3563;SDS011;1796;52.388;13.096;2022-09-30T03:20:18;11.83;;;9.07;;
3563;SDS011;1796;52.388;13.096;2022-09-30T03:23:26;14.60;;;9.63;;
3563;SDS011;1796;52.388;13.096;2022-09-30T03:26:08;10.93;;;9.10;;
3563;SDS011;1796;52.388;13.096;2022-09-30T03:28:44;10.40;;;8.90;;
3563;SDS011;1796;52.388;13.096;2022-09-30T03:31:21;11.27;;;9.50;;
3563;SDS011;1796;52.388;13.096;2022-09-30T03:33:57;14.10;;;8.80;;
3563;SDS011;1796;52.388;13.096;2022-09-30T03:36:34;12.53;;;9.97;;
3563;SDS011;1796;52.388;13.096;2022-09-30T03:39:07;12.97;;;9.80;;
3563;SDS011;1796;52.388;13.096;2022-09-30T03:41:41;13.70;;;9.90;;
3563;SDS011;1796;52.388;13.096;2022-09-30T03:44:14;9.90;;;8.77;;
3563;SDS011;1796;52.388;13.096;2022-09-30T03:46:46;12.17;;;9.23;;
3563;SDS011;1796;52.388;13.096;2022-09-30T03:49:17;8.73;;;7.80;;
3563;SDS011;1796;52.388;13.096;2022-09-30T03:51:49;12.23;;;8.80;;
3563;SDS011;1796;52.388;13.096;2022-09-30T03:54:15;13.00;;;8.83;;
3563;SDS011;1796;52.388;13.096;2022-09-30T03:56:42;13.50;;;9.00;;
3563;SDS011;1796;52.388;13.096;2022-09-30T03:59:10;14.60;;;9.20;;
3563;SDS011;1796;52.388;13.096;2022-09-30T04:01:38;13.00;;;8.90;;
3563;SDS011;1796;52.388;13.096;2022-09-30T04:04:05;11.93;;;9.40;;
3563;SDS011;1796;52.388;13.096;2022-09-30T04:06:31;10.40;;;8.10;;
3563;SDS011;1796;52.388;13.096;2022-09-30T04:09:00;11.10;;;8.90;;
3563;SDS011;1796;52.388;13.096;2022-09-30T04:11:27;13.00;;;9.13;;
3563;SDS011;1796;52.388;13.096;2022-09-30T04:13:53;12.10;;;9.33;;
3563;SDS011;1796;52.388;13.096;2022-09-30T04:16:20;13.20;;;8.97;;
3563;SDS011;1796;52.388;13.096;2022-09-30T04:18:47;13.93;;;8.70;;
3563;SDS011;1796;52.388;13.096;2022-09-30T04:21:15;11.87;;;9.53;;
3563;SDS011;1796;52.388;13.096;2022-09-30T04:23:42;18.37;;;9.60;;
3563;SDS011;1796;52.388;13.096;2022-09-30T04:26:11;12.50;;;9.43;;
3563;SDS011;1796;52.388;13.096;2022-09-30T04:28:39;11.70;;;9.57;;
3563;SDS011;1796;52.388;13.096;2022-09-30T04:31:06;12.90;;;9.00;;
3563;SDS011;1796;52.388;13.096;2022-09-30T04:33:35;12.00;;;9.30;;
3563;SDS011;1796;52.388;13.096;2022-09-30T04:36:03;12.20;;;9.00;;
3563;SDS011;1796;52.388;13.096;2022-09-30T04:38:30;14.20;;;10.10;;
3563;SDS011;1796;52.388;13.096;2022-09-30T04:41:00;11.20;;;9.13;;
3563;SDS011;1796;52.388;13.096;2022-09-30T04:43:29;14.70;;;9.27;;
3563;SDS011;1796;52.388;13.096;2022-09-30T04:45:56;15.43;;;9.10;;
3563;SDS011;1796;52.388;13.096;2022-09-30T04:48:23;11.40;;;8.77;;
3563;SDS011;1796;52.388;13.096;2022-09-30T04:50:52;11.97;;;9.33;;
3563;SDS011;1796;52.388;13.096;2022-09-30T04:53:19;18.17;;;9.23;;
3563;SDS011;1796;52.388;13.096;2022-09-30T04:55:46;12.00;;;9.60;;
3563;SDS011;1796;52.388;13.096;2022-09-30T04:58:12;10.73;;;8.93;;
3563;SDS011;1796;52.388;13.096;2022-09-30T05:00:42;16.27;;;9.00;;
3563;SDS011;1796;52.388;13.096;2022-09-30T05:03:09;12.77;;;9.23;;
3563;SDS011;1796;52.388;13.096;2022-09-30T05:05:36;12.87;;;8.53;;
3563;SDS011;1796;52.388;13.096;2022-09-30T05:08:03;13.40;;;8.57;;
3563;SDS011;1796;52.388;13.096;2022-09-30T05:10:30;21.90;;;9.50;;
3563;SDS011;1796;52.388;13.096;2022-09-30T05:12:57;13.80;;;9.67;;
3563;SDS011;1796;52.388;13.096;2022-09-30T05:15:25;10.97;;;8.80;;
3563;SDS011;1796;52.388;13.096;2022-09-30T05:17:53;14.47;;;9.27;;
3563;SDS011;1796;52.388;13.096;2022-09-30T05:20:20;10.50;;;8.37;;
3563;SDS011;1796;52.388;13.096;2022-09-30T05:22:47;12.60;;;8.30;;
3563;SDS011;1796;52.388;13.096;2022-09-30T05:25:20;14.87;;;9.93;;
3563;SDS011;1796;52.388;13.096;2022-09-30T05:27:47;15.03;;;9.53;;
3563;SDS011;1796;52.388;13.096;2022-09-30T05:30:14;17.63;;;10.30;;
3563;SDS011;1796;52.388;13.096;2022-09-30T05:32:41;14.80;;;10.33;;
3563;SDS011;1796;52.388;13.096;2022-09-30T05:35:10;16.10;;;10.70;;
3563;SDS011;1796;52.388;13.096;2022-09-30T05:37:37;17.43;;;10.67;;
3563;SDS011;1796;52.388;13.096;2022-09-30T05:40:04;16.50;;;11.40;;
3563;SDS011;1796;52.388;13.096;2022-09-30T05:42:32;20.73;;;10.30;;
3563;SDS011;1796;52.388;13.096;2022-09-30T05:45:01;17.73;;;11.93;;
3563;SDS011;1796;52.388;13.096;2022-09-30T05:47:27;20.10;;;11.33;;
3563;SDS011;1796;52.388;13.096;2022-09-30T05:49:54;17.77;;;12.40;;
3563;SDS011;1796;52.388;13.096;2022-09-30T05:52:23;22.17;;;13.37;;
3563;SDS011;1796;52.388;13.096;2022-09-30T05:54:50;24.77;;;13.17;;
3563;SDS011;1796;52.388;13.096;2022-09-30T05:57:17;18.63;;;12.80;;
3563;SDS011;1796;52.388;13.096;2022-09-30T05:59:44;24.37;;;12.37;;
3563;SDS011;1796;52.388;13.096;2022-09-30T06:02:11;15.93;;;11.70;;
3563;SDS011;1796;52.388;13.096;2022-09-30T06:04:38;15.37;;;10.73;;
3563;SDS011;1796;52.388;13.096;2022-09-30T06:07:05;18.23;;;10.70;;
3563;SDS011;1796;52.388;13.096;2022-09-30T06:09:33;20.13;;;9.87;;
3563;SDS011;1796;52.388;13.096;2022-09-30T06:12:00;14.53;;;9.63;;
3563;SDS011;1796;52.388;13.096;2022-09-30T06:14:27;10.80;;;8.93;;
3563;SDS011;1796;52.388;13.096;2022-09-30T06:16:54;17.03;;;8.90;;
3563;SDS011;1796;52.388;13.096;2022-09-30T06:19:21;11.83;;;8.10;;
3563;SDS011;1796;52.388;13.096;2022-09-30T06:21:48;12.43;;;9.30;;
3563;SDS011;1796;52.388;13.096;2022-09-30T06:24:14;19.13;;;9.60;;
3563;SDS011;1796;52.388;13.096;2022-09-30T06:26:43;14.60;;;8.50;;
3563;SDS011;1796;52.388;13.096;2022-09-30T06:29:10;9.40;;;7.73;;
3563;SDS011;1796;52.388;13.096;2022-09-30T06:31:36;21.57;;;8.50;;
3563;SDS011;1796;52.388;13.096;2022-09-30T06:34:12;17.50;;;8.13;;
3563;SDS011;1796;52.388;13.096;2022-09-30T06:36:39;11.20;;;8.33;;
3563;SDS011;1796;52.388;13.096;2022-09-30T06:39:06;9.27;;;7.90;;
3563;SDS011;1796;52.388;13.096;2022-09-30T06:41:33;11.00;;;7.67;;
3563;SDS011;1796;52.388;13.096;2022-09-30T06:44:05;13.47;;;8.77;;
3563;SDS011;1796;52.388;13.096;2022-09-30T06:46:32;8.53;;;7.73;;
3563;SDS011;1796;52.388;13.096;2022-09-30T06:48:59;10.33;;;8.20;;
3563;SDS011;1796;52.388;13.096;2022-09-30T06:51:28;10.17;;;8.33;;
3563;SDS011;1796;52.388;13.096;2022-09-30T06:53:57;15.03;;;9.20;;
3563;SDS011;1796;52.388;13.096;2022-09-30T06:56:24;14.03;;;9.60;;
3563;SDS011;1796;52.388;13.096;2022-09-30T06:58:51;13.80;;;8.77;;
3563;SDS011;1796;52.388;13.096;2022-09-30T07:01:22;10.10;;;8.07;;
3563;SDS011;1796;52.388;13.096;2022-09-30T07:03:49;13.83;;;8.47;;
3563;SDS011;1796;52.388;13.096;2022-09-30T07:06:22;10.77;;;8.97;;
3563;SDS011;1796;52.388;13.096;2022-09-30T07:08:49;13.83;;;9.70;;
3563;SDS011;1796;52.388;13.096;2022-09-30T07:11:17;12.30;;;8.90;;
3563;SDS011;1796;52.388;13.096;2022-09-30T07:13:45;13.73;;;10.33;;
3563;SDS011;1796;52.388;13.096;2022-09-30T07:16:13;20.47;;;10.50;;
3563;SDS011;1796;52.388;13.096;2022-09-30T07:18:43;9.97;;;9.00;;
3563;SDS011;1796;52.388;13.096;2022-09-30T07:21:11;10.40;;;9.30;;
3563;SDS011;1796;52.388;13.096;2022-09-30T07:23:40;11.13;;;8.60;;
3563;SDS011;1796;52.388;13.096;2022-09-30T07:26:09;10.47;;;8.00;;
3563;SDS011;1796;52.388;13.096;2022-09-30T07:28:36;9.83;;;8.83;;
3563;SDS011;1796;52.388;13.096;2022-09-30T07:31:05;14.30;;;8.90;;
3563;SDS011;1796;52.388;13.096;2022-09-30T07:33:36;11.93;;;8.60;;
3563;SDS011;1796;52.388;13.096;2022-09-30T07:36:05;33.77;;;9.10;;
3563;SDS011;1796;52.388;13.096;2022-09-30T07:38:33;13.80;;;10.20;;
3563;SDS011;1796;52.388;13.096;2022-09-30T07:41:02;11.83;;;10.30;;
3563;SDS011;1796;52.388;13.096;2022-09-30T07:43:32;11.10;;;10.00;;
3563;SDS011;1796;52.388;13.096;2022-09-30T07:46:03;15.20;;;10.87;;
3563;SDS011;1796;52.388;13.096;2022-09-30T07:48:30;12.20;;;10.47;;
3563;SDS011;1796;52.388;13.096;2022-09-30T07:51:08;13.67;;;10.97;;
3563;SDS011;1796;52.388;13.096;2022-09-30T07:53:36;14.40;;;10.83;;
3563;SDS011;1796;52.388;13.096;2022-09-30T07:56:03;18.80;;;11.60;;
3563;SDS011;1796;52.388;13.096;2022-09-30T07:58:31;13.03;;;10.23;;
3563;SDS011;1796;52.388;13.096;2022-09-30T08:00:58;17.23;;;10.53;;
3563;SDS011;1796;52.388;13.096;2022-09-30T08:03:25;15.70;;;10.73;;
3563;SDS011;1796;52.388;13.096;2022-09-30T08:05:52;14.17;;;9.30;;
3563;SDS011;1796;52.388;13.096;2022-09-30T08:08:20;15.47;;;10.10;;
3563;SDS011;1796;52.388;13.096;2022-09-30T08:10:47;13.43;;;9.67;;
3563;SDS011;1796;52.388;13.096;2022-09-30T08:13:14;15.00;;;9.37;;
3563;SDS011;1796;52.388;13.096;2022-09-30T08:15:41;21.53;;;10.53;;
3563;SDS011;1796;52.388;13.096;2022-09-30T08:18:08;13.60;;;10.47;;
3563;SDS011;1796;52.388;13.096;2022-09-30T08:20:35;10.80;;;9.67;;
3563;SDS011;1796;52.388;13.096;2022-09-30T08:23:02;14.33;;;9.73;;
3563;SDS011;1796;52.388;13.096;2022-09-30T08:25:33;14.70;;;10.30;;
3563;SDS011;1796;52.388;13.096;2022-09-30T08:28:00;13.77;;;10.40;;
3563;SDS011;1796;52.388;13.096;2022-09-30T08:30:27;11.40;;;8.80;;
3563;SDS011;1796;52.388;13.096;2022-09-30T08:32:54;17.87;;;10.03;;
3563;SDS011;1796;52.388;13.096;2022-09-30T08:35:21;11.60;;;10.40;;
3563;SDS011;1796;52.388;13.096;2022-09-30T08:37:48;10.97;;;9.03;;
3563;SDS011;1796;52.388;13.096;2022-09-30T08:40:17;13.13;;;9.20;;
3563;SDS011;1796;52.388;13.096;2022-09-30T08:42:53;19.00;;;10.43;;
3563;SDS011;1796;52.388;13.096;2022-09-30T08:45:32;11.37;;;10.23;;
3563;SDS011;1796;52.388;13.096;2022-09-30T08:48:05;14.33;;;9.70;;
3563;SDS011;1796;52.388;13.096;2022-09-30T08:50:48;12.30;;;9.90;;
3563;SDS011;1796;52.388;13.096;2022-09-30T08:53:27;14.40;;;10.30;;
3563;SDS011;1796;52.388;13.096;2022-09-30T08:55:56;9.73;;;8.80;;
3563;SDS011;1796;52.388;13.096;2022-09-30T08:58:29;11.40;;;9.07;;
3563;SDS011;1796;52.388;13.096;2022-09-30T09:00:59;18.07;;;9.00;;
3563;SDS011;1796;52.388;13.096;2022-09-30T09:03:30;11.67;;;9.97;;
3563;SDS011;1796;52.388;13.096;2022-09-30T09:06:19;12.93;;;9.37;;
3563;SDS011;1796;52.388;13.096;2022-09-30T09:08:58;10.60;;;9.50;;
3563;SDS011;1796;52.388;13.096;2022-09-30T09:11:45;16.17;;;10.57;;
3563;SDS011;1796;52.388;13.096;2022-09-30T09:14:27;26.23;;;12.57;;
3563;SDS011;1796;52.388;13.096;2022-09-30T09:17:06;18.30;;;10.97;;
3563;SDS011;1796;52.388;13.096;2022-09-30T09:19:43;29.27;;;14.53;;
3563;SDS011;1796;52.388;13.096;2022-09-30T09:22:16;12.80;;;8.20;;
3563;SDS011;1796;52.388;13.096;2022-09-30T09:24:43;15.17;;;9.10;;
3563;SDS011;1796;52.388;13.096;2022-09-30T09:27:17;9.40;;;8.50;;
3563;SDS011;1796;52.388;13.096;2022-09-30T09:29:51;9.60;;;7.90;;
3563;SDS011;1796;52.388;13.096;2022-09-30T09:32:26;10.37;;;7.63;;
3563;SDS011;1796;52.388;13.096;2022-09-30T09:34:56;12.43;;;8.60;;
3563;SDS011;1796;52.388;13.096;2022-09-30T09:37:28;8.10;;;7.40;;
3563;SDS011;1796;52.388;13.096;2022-09-30T09:40:25;8.57;;;7.60;;
3563;SDS011;1796;52.388;13.096;2022-09-30T09:43:05;8.07;;;7.27;;
3563;SDS011;1796;52.388;13.096;2022-09-30T09:45:42;10.80;;;6.70;;
3563;SDS011;1796;52.388;13.096;2022-09-30T09:48:17;6.77;;;6.10;;
3563;SDS011;1796;52.388;13.096;2022-09-30T09:50:47;12.33;;;6.10;;
3563;SDS011;1796;52.388;13.096;2022-09-30T09:56:18;9.83;;;7.00;;
3563;SDS011;1796;52.388;13.096;2022-09-30T10:01:36;10.53;;;5.60;;
3563;SDS011;1796;52.388;13.096;2022-09-30T10:04:12;6.10;;;5.50;;
3563;SDS011;1796;52.388;13.096;2022-09-30T10:06:46;6.67;;;5.47;;
3563;SDS011;1796;52.388;13.096;2022-09-30T10:09:21;12.73;;;5.50;;
3563;SDS011;1796;52.388;13.096;2022-09-30T10:14:57;4.10;;;3.77;;
3563;SDS011;1796;52.388;13.096;2022-09-30T10:19:58;4.00;;;3.60;;
3563;SDS011;1796;52.388;13.096;2022-09-30T10:22:31;4.63;;;3.47;;
3563;SDS011;1796;52.388;13.096;2022-09-30T10:25:08;3.97;;;3.60;;
3563;SDS011;1796;52.388;13.096;2022-09-30T10:27:47;5.10;;;3.20;;
3563;SDS011;1796;52.388;13.096;2022-09-30T10:30:36;4.60;;;3.00;;
3563;SDS011;1796;52.388;13.096;2022-09-30T10:33:14;5.90;;;2.03;;
3563;SDS011;1796;52.388;13.096;2022-09-30T10:35:59;2.83;;;2.63;;
3563;SDS011;1796;52.388;13.096;2022-09-30T10:38:31;2.70;;;2.50;;
3563;SDS011;1796;52.388;13.096;2022-09-30T10:41:00;2.57;;;2.40;;
3563;SDS011;1796;52.388;13.096;2022-09-30T10:43:29;2.80;;;2.60;;
3563;SDS011;1796;52.388;13.096;2022-09-30T10:46:01;2.90;;;2.30;;
3563;SDS011;1796;52.388;13.096;2022-09-30T10:48:30;3.47;;;2.50;;
3563;SDS011;1796;52.388;13.096;2022-09-30T10:51:01;2.67;;;2.47;;
3563;SDS011;1796;52.388;13.096;2022-09-30T10:53:30;3.00;;;2.73;;
3563;SDS011;1796;52.388;13.096;2022-09-30T10:55:59;2.77;;;2.57;;
3563;SDS011;1796;52.388;13.096;2022-09-30T10:58:34;3.00;;;2.30;;
3563;SDS011;1796;52.388;13.096;2022-09-30T11:01:11;2.33;;;2.20;;
3563;SDS011;1796;52.388;13.096;2022-09-30T11:03:49;2.07;;;1.97;;
3563;SDS011;1796;52.388;13.096;2022-09-30T11:06:23;5.80;;;2.13;;
3563;SDS011;1796;52.388;13.096;2022-09-30T11:08:55;2.53;;;2.00;;
3563;SDS011;1796;52.388;13.096;2022-09-30T11:11:27;3.50;;;1.70;;
3563;SDS011;1796;52.388;13.096;2022-09-30T11:14:04;2.27;;;2.17;;
3563;SDS011;1796;52.388;13.096;2022-09-30T11:16:46;2.10;;;1.90;;
3563;SDS011;1796;52.388;13.096;2022-09-30T11:19:19;2.43;;;1.97;;
3563;SDS011;1796;52.388;13.096;2022-09-30T11:21:54;2.57;;;1.90;;
3563;SDS011;1796;52.388;13.096;2022-09-30T11:24:24;5.60;;;2.27;;
3563;SDS011;1796;52.388;13.096;2022-09-30T11:27:00;2.63;;;2.43;;
3563;SDS011;1796;52.388;13.096;2022-09-30T11:29:40;8.63;;;3.00;;
3563;SDS011;1796;52.388;13.096;2022-09-30T11:32:22;2.97;;;2.67;;
3563;SDS011;1796;52.388;13.096;2022-09-30T11:34:59;9.17;;;3.40;;
3563;SDS011;1796;52.388;13.096;2022-09-30T11:37:39;3.80;;;2.67;;
3563;SDS011;1796;52.388;13.096;2022-09-30T11:40:23;2.50;;;2.30;;
3563;SDS011;1796;52.388;13.096;2022-09-30T11:42:58;2.90;;;2.70;;
3563;SDS011;1796;52.388;13.096;2022-09-30T11:45:32;4.17;;;2.33;;
3563;SDS011;1796;52.388;13.096;2022-09-30T11:48:20;8.60;;;2.90;;
3563;SDS011;1796;52.388;13.096;2022-09-30T11:51:02;4.33;;;2.50;;
3563;SDS011;1796;52.388;13.096;2022-09-30T11:53:41;2.03;;;1.93;;
3563;SDS011;1796;52.388;13.096;2022-09-30T11:56:17;2.63;;;2.10;;
3563;SDS011;1796;52.388;13.096;2022-09-30T11:58:57;2.90;;;1.93;;
3563;SDS011;1796;52.388;13.096;2022-09-30T12:01:27;8.13;;;2.77;;
3563;SDS011;1796;52.388;13.096;2022-09-30T12:03:59;3.10;;;2.37;;
3563;SDS011;1796;52.388;13.096;2022-09-30T12:06:32;2.30;;;2.20;;
3563;SDS011;1796;52.388;13.096;2022-09-30T12:09:04;2.37;;;2.20;;
3563;SDS011;1796;52.388;13.096;2022-09-30T12:11:39;2.90;;;2.30;;
3563;SDS011;1796;52.388;13.096;2022-09-30T12:14:12;1.60;;;1.47;;
3563;SDS011;1796;52.388;13.096;2022-09-30T12:16:44;6.80;;;2.30;;
3563;SDS011;1796;52.388;13.096;2022-09-30T12:19:13;1.87;;;1.80;;
3563;SDS011;1796;52.388;13.096;2022-09-30T12:21:44;5.37;;;2.30;;
3563;SDS011;1796;52.388;13.096;2022-09-30T12:24:20;3.33;;;2.27;;
3563;SDS011;1796;52.388;13.096;2022-09-30T12:26:50;1.97;;;1.73;;
3563;SDS011;1796;52.388;13.096;2022-09-30T12:29:19;2.43;;;2.30;;
3563;SDS011;1796;52.388;13.096;2022-09-30T12:32:12;3.53;;;2.20;;
3563;SDS011;1796;52.388;13.096;2022-09-30T12:35:08;2.47;;;1.80;;
3563;SDS011;1796;52.388;13.096;2022-09-30T12:37:52;2.13;;;1.93;;
3563;SDS011;1796;52.388;13.096;2022-09-30T12:40:38;1.80;;;1.70;;
3563;SDS011;1796;52.388;13.096;2022-09-30T12:43:27;2.97;;;1.77;;
3563;SDS011;1796;52.388;13.096;2022-09-30T12:46:14;2.03;;;1.93;;
3563;SDS011;1796;52.388;13.096;2022-09-30T12:48:48;2.73;;;1.80;;
3563;SDS011;1796;52.388;13.096;2022-09-30T12:51:22;1.70;;;1.70;;
3563;SDS011;1796;52.388;13.096;2022-09-30T12:53:54;2.10;;;2.00;;
3563;SDS011;1796;52.388;13.096;2022-09-30T12:56:29;2.90;;;1.90;;
3563;SDS011;1796;52.388;13.096;2022-09-30T12:58:58;3.53;;;1.80;;
3563;SDS011;1796;52.388;13.096;2022-09-30T13:01:28;1.90;;;1.80;;
3563;SDS011;1796;52.388;13.096;2022-09-30T13:04:16;1.80;;;1.70;;
3563;SDS011;1796;52.388;13.096;2022-09-30T13:13:07;2.17;;;1.47;;
3563;SDS011;1796;52.388;13.096;2022-09-30T13:15:47;1.70;;;1.57;;
3563;SDS011;1796;52.388;13.096;2022-09-30T13:21:20;4.17;;;1.60;;
3563;SDS011;1796;52.388;13.096;2022-09-30T13:23:49;3.03;;;1.50;;
3563;SDS011;1796;52.388;13.096;2022-09-30T13:26:30;3.03;;;1.40;;
3563;SDS011;1796;52.388;13.096;2022-09-30T13:32:03;5.27;;;1.70;;
3563;SDS011;1796;52.388;13.096;2022-09-30T13:34:31;1.33;;;1.33;;
3563;SDS011;1796;52.388;13.096;2022-09-30T13:37:26;1.77;;;1.00;;
3563;SDS011;1796;52.388;13.096;2022-09-30T13:39:57;1.23;;;1.10;;
3563;SDS011;1796;52.388;13.096;2022-09-30T13:42:29;2.40;;;1.57;;
3563;SDS011;1796;52.388;13.096;2022-09-30T13:45:03;5.20;;;1.50;;
3563;SDS011;1796;52.388;13.096;2022-09-30T13:47:34;1.13;;;1.13;;
3563;SDS011;1796;52.388;13.096;2022-09-30T13:50:09;3.90;;;1.73;;
3563;SDS011;1796;52.388;13.096;2022-09-30T13:52:40;1.40;;;1.30;;
3563;SDS011;1796;52.388;13.096;2022-09-30T13:55:13;2.73;;;1.30;;
3563;SDS011;1796;52.388;13.096;2022-09-30T13:57:47;1.30;;;1.20;;
3563;SDS011;1796;52.388;13.096;2022-09-30T14:00:26;2.97;;;1.30;;
3563;SDS011;1796;52.388;13.096;2022-09-30T14:05:54;1.30;;;1.20;;
3563;SDS011;1796;52.388;13.096;2022-09-30T14:08:31;3.57;;;1.93;;
3563;SDS011;1796;52.388;13.096;2022-09-30T14:11:18;1.70;;;1.60;;
3563;SDS011;1796;52.388;13.096;2022-09-30T14:14:01;1.67;;;1.57;;
3563;SDS011;1796;52.388;13.096;2022-09-30T14:16:54;2.80;;;1.50;;
3563;SDS011;1796;52.388;13.096;2022-09-30T14:19:36;1.97;;;1.60;;
3563;SDS011;1796;52.388;13.096;2022-09-30T14:22:22;4.13;;;1.73;;
3563;SDS011;1796;52.388;13.096;2022-09-30T14:24:51;1.50;;;1.40;;
3563;SDS011;1796;52.388;13.096;2022-09-30T14:30:10;2.73;;;2.00;;
3563;SDS011;1796;52.388;13.096;2022-09-30T14:32:43;2.00;;;1.47;;
3563;SDS011;1796;52.388;13.096;2022-09-30T14:35:13;3.60;;;1.70;;
3563;SDS011;1796;52.388;13.096;2022-09-30T14:37:44;1.57;;;1.47;;
3563;SDS011;1796;52.388;13.096;2022-09-30T14:40:15;10.40;;;1.83;;
3563;SDS011;1796;52.388;13.096;2022-09-30T14:42:44;2.10;;;1.67;;
3563;SDS011;1796;52.388;13.096;2022-09-30T14:45:17;1.90;;;1.80;;
3563;SDS011;1796;52.388;13.096;2022-09-30T14:47:50;3.90;;;1.90;;
3563;SDS011;1796;52.388;13.096;2022-09-30T14:50:19;3.63;;;1.53;;
3563;SDS011;1796;52.388;13.096;2022-09-30T14:52:50;5.73;;;2.17;;
3563;SDS011;1796;52.388;13.096;2022-09-30T14:55:26;2.10;;;1.97;;
3563;SDS011;1796;52.388;13.096;2022-09-30T14:57:56;2.17;;;1.97;;
3563;SDS011;1796;52.388;13.096;2022-09-30T15:00:46;1.30;;;1.30;;
3563;SDS011;1796;52.388;13.096;2022-09-30T15:03:17;1.90;;;1.80;;
3563;SDS011;1796;52.388;13.096;2022-09-30T15:05:44;4.23;;;2.07;;
3563;SDS011;1796;52.388;13.096;2022-09-30T15:08:11;3.23;;;1.90;;
3563;SDS011;1796;52.388;13.096;2022-09-30T15:10:45;2.17;;;2.07;;
3563;SDS011;1796;52.388;13.096;2022-09-30T15:13:13;2.80;;;2.30;;
3563;SDS011;1796;52.388;13.096;2022-09-30T15:15:41;3.10;;;2.90;;
3563;SDS011;1796;52.388;13.096;2022-09-30T15:18:22;2.47;;;2.27;;
3563;SDS011;1796;52.388;13.096;2022-09-30T15:20:50;1.70;;;1.60;;
3563;SDS011;1796;52.388;13.096;2022-09-30T15:23:20;3.33;;;1.53;;
3563;SDS011;1796;52.388;13.096;2022-09-30T15:25:51;1.90;;;1.80;;
3563;SDS011;1796;52.388;13.096;2022-09-30T15:28:18;6.93;;;2.23;;
3563;SDS011;1796;52.388;13.096;2022-09-30T15:30:45;2.60;;;1.80;;
3563;SDS011;1796;52.388;13.096;2022-09-30T15:33:13;2.30;;;1.90;;
3563;SDS011;1796;52.388;13.096;2022-09-30T15:35:44;4.57;;;3.00;;
3563;SDS011;1796;52.388;13.096;2022-09-30T15:38:15;5.40;;;2.97;;
3563;SDS011;1796;52.388;13.096;2022-09-30T15:40:46;5.97;;;2.90;;
3563;SDS011;1796;52.388;13.096;2022-09-30T15:43:28;6.93;;;2.60;;
3563;SDS011;1796;52.388;13.096;2022-09-30T15:48:59;7.40;;;2.90;;
3563;SDS011;1796;52.388;13.096;2022-09-30T15:51:30;4.40;;;3.90;;
3563;SDS011;1796;52.388;13.096;2022-09-30T15:53:59;3.30;;;3.07;;
3563;SDS011;1796;52.388;13.096;2022-09-30T15:56:31;3.20;;;2.63;;
3563;SDS011;1796;52.388;13.096;2022-09-30T15:59:00;3.67;;;2.80;;